Time;durP1;ratioP1;P1;durP2;ratioP2;P2;SDS_P1;SDS_P2;PMS_P1;PMS_P2;Temp;Humidity;BMP_temperature;BMP_pressure;BME280_temperature;BME280_humidity;BME280_pressure;Samples;Min_cycle;Max_cycle;Signal;HPM_P1;HPM_P2
2022/04/20 00:01:43;;;;;;;11.30;3.90;;;;;;;5.29;78.53;99929.05;104886;1274;59291;-60
2022/04/20 00:04:31;;;;;;;10.10;3.90;;;;;;;5.28;78.74;99926.65;104876;1274;60543;-60
2022/04/20 00:07:19;;;;;;;10.30;4.00;;;;;;;5.26;78.73;99929.06;104871;1274;73566;-61
2022/04/20 00:10:08;;;;;;;10.90;4.10;;;;;;;5.24;79.10;99930.58;104791;1273;68251;-63
2022/04/20 00:12:57;;;;;;;11.30;4.00;;;;;;;5.22;79.17;99928.76;104921;1274;72639;-59
2022/04/20 00:15:45;;;;;;;11.00;4.20;;;;;;;5.22;79.31;99928.91;104818;1274;59299;-61
2022/04/20 00:18:33;;;;;;;12.00;4.00;;;;;;;5.24;79.06;99933.73;104946;1274;60265;-61
2022/04/20 00:21:21;;;;;;;10.10;3.40;;;;;;;5.29;79.34;99932.58;104792;1274;74010;-62
2022/04/20 00:24:08;;;;;;;12.40;4.00;;;;;;;5.31;80.04;99939.52;104931;1272;69656;-61
2022/04/20 00:26:57;;;;;;;12.50;3.90;;;;;;;5.31;80.45;99952.87;104841;1272;73936;-62
2022/04/20 00:29:44;;;;;;;8.30;3.40;;;;;;;5.34;80.25;99958.02;104169;1274;1003383;-63
2022/04/20 00:32:33;;;;;;;7.90;3.30;;;;;;;5.34;80.50;99952.88;104878;1274;60567;-62
2022/04/20 00:35:21;;;;;;;12.00;3.60;;;;;;;5.35;81.04;99952.29;104911;1274;73217;-62
2022/04/20 00:38:09;;;;;;;8.20;3.20;;;;;;;5.35;81.31;99953.18;104743;1274;68799;-62
2022/04/20 00:40:57;;;;;;;10.60;3.70;;;;;;;5.35;81.19;99948.45;104743;1273;72169;-62
2022/04/20 00:43:46;;;;;;;9.80;3.30;;;;;;;5.35;81.38;99950.16;104808;1274;59322;-64
2022/04/20 00:46:35;;;;;;;11.50;3.80;;;;;;;5.35;81.27;99956.67;104813;1274;60560;-60
2022/04/20 00:49:26;;;;;;;8.70;3.20;;;;;;;5.36;81.52;99958.58;104778;1274;71358;-62
2022/04/20 00:52:15;;;;;;;9.20;3.40;;;;;;;5.39;81.18;99948.88;104991;1274;68408;-61
2022/04/20 00:55:06;;;;;;;13.50;3.90;;;;;;;5.41;81.33;99945.40;104708;1273;73261;-62
2022/04/20 00:57:55;;;;;;;9.90;3.00;;;;;;;5.43;81.32;99933.51;104728;1277;59520;-61
2022/04/20 01:00:43;;;;;;;9.30;3.40;;;;;;;5.45;81.54;99929.20;105118;1274;60576;-62
2022/04/20 01:03:31;;;;;;;9.20;2.80;;;;;;;5.47;81.34;99928.01;104810;1274;72910;-62
2022/04/20 01:06:52;;;;;;;8.30;3.00;;;;;;;5.48;81.47;99922.17;105094;1274;68135;-63
2022/04/20 01:10:15;;;;;;;9.30;2.70;;;;;;;5.45;81.60;99911.76;104932;1274;73488;-65
2022/04/20 01:13:11;;;;;;;10.00;2.90;;;;;;;5.44;81.75;99910.73;104990;1274;59407;-63
2022/04/20 01:16:05;;;;;;;11.60;3.00;;;;;;;5.43;82.32;99911.16;104897;1274;60379;-62
2022/04/20 01:19:17;;;;;;;8.30;3.00;;;;;;;5.42;82.76;99900.13;105052;1274;74311;-65
2022/04/20 01:22:20;;;;;;;20.70;6.60;;;;;;;5.40;82.96;99888.98;105041;1274;67221;-61
2022/04/20 01:25:23;;;;;;;83.20;28.60;;;;;;;5.41;83.52;99887.73;104711;1273;72652;-62
2022/04/20 01:28:44;;;;;;;79.50;28.40;;;;;;;5.40;83.75;99893.02;105000;1274;59746;-62
2022/04/20 01:31:51;;;;;;;116.20;38.80;;;;;;;5.38;84.40;99891.91;104754;1274;61472;-63
2022/04/20 01:35:06;;;;;;;97.20;31.60;;;;;;;5.38;84.41;99886.46;105100;1272;72433;-62
2022/04/20 01:37:55;;;;;;;79.80;31.00;;;;;;;5.40;84.44;99891.63;104873;1274;68947;-64
2022/04/20 01:40:43;;;;;;;43.30;19.80;;;;;;;5.42;84.92;99876.70;104775;1274;72537;-64
2022/04/20 01:43:31;;;;;;;27.60;10.10;;;;;;;5.44;84.99;99877.13;104912;1274;59510;-61
2022/04/20 01:46:45;;;;;;;13.00;5.60;;;;;;;5.44;84.92;99878.41;105059;1274;59434;-62
2022/04/20 01:49:56;;;;;;;13.30;4.40;;;;;;;5.43;85.11;99870.14;105057;1274;71807;-64
2022/04/20 01:52:56;;;;;;;10.80;4.20;;;;;;;5.44;85.13;99868.34;104832;1274;69067;-62
2022/04/20 01:56:16;;;;;;;9.60;3.40;;;;;;;5.44;84.82;99864.98;105077;1273;73420;-61
2022/04/20 01:59:20;;;;;;;10.60;3.60;;;;;;;5.45;85.00;99863.73;105149;1274;59441;-62
2022/04/20 02:02:38;;;;;;;9.00;3.70;;;;;;;5.45;85.15;99851.05;105011;1274;60475;-63
2022/04/20 02:05:52;;;;;;;7.60;3.00;;;;;;;5.44;85.06;99848.47;105049;1274;73922;-61
2022/04/20 02:08:53;;;;;;;9.70;3.70;;;;;;;5.45;85.30;99851.95;105009;1275;68308;-62
2022/04/20 02:12:01;;;;;;;8.90;3.50;;;;;;;5.48;85.23;99847.73;104965;1274;72382;-60
2022/04/20 02:15:12;;;;;;;14.70;5.70;;;;;;;5.49;85.37;99844.83;104823;1274;61333;-61
2022/04/20 02:18:29;;;;;;;13.90;5.20;;;;;;;5.47;85.12;99847.95;104981;1274;60420;-62
2022/04/20 02:21:40;;;;;;;11.50;4.70;;;;;;;5.48;85.19;99848.08;104799;1273;74268;-61
2022/04/20 02:24:28;;;;;;;11.00;3.90;;;;;;;5.49;85.28;99847.85;104780;1274;69351;-61
2022/04/20 02:27:16;;;;;;;9.70;3.90;;;;;;;5.47;84.92;99839.48;105004;1274;73462;-62
2022/04/20 02:30:06;;;;;;;10.40;3.70;;;;;;;5.44;85.09;99837.89;104896;1274;59395;-62
2022/04/20 02:32:57;;;;;;;10.80;3.30;;;;;;;5.41;85.35;99836.19;104720;1273;61053;-64
2022/04/20 02:35:48;;;;;;;10.00;3.70;;;;;;;5.38;85.58;99833.55;104775;1274;72243;-62
2022/04/20 02:38:36;;;;;;;10.50;3.50;;;;;;;5.36;85.51;99846.68;104802;1274;69453;-64
2022/04/20 02:41:25;;;;;;;11.10;3.60;;;;;;;5.35;85.62;99849.20;104771;1274;73258;-61
2022/04/20 02:44:14;;;;;;;11.50;3.50;;;;;;;5.32;85.79;99847.05;104777;1274;59502;-62
2022/04/20 02:47:02;;;;;;;7.90;2.90;;;;;;;5.29;86.30;99846.89;104801;1274;60428;-62
2022/04/20 02:49:50;;;;;;;9.30;3.30;;;;;;;5.25;86.46;99840.77;104799;1274;73006;-61
2022/04/20 02:52:39;;;;;;;9.40;3.20;;;;;;;5.22;86.49;99829.73;105012;1274;67812;-64
2022/04/20 02:55:28;;;;;;;12.50;3.60;;;;;;;5.18;86.75;99830.48;104773;1274;73274;-63
2022/04/20 02:58:16;;;;;;;9.00;3.70;;;;;;;5.16;87.15;99826.75;104657;1274;59302;-64
2022/04/20 03:01:08;;;;;;;12.50;3.30;;;;;;;5.15;87.37;99811.52;104932;1274;60560;-64
2022/04/20 03:04:00;;;;;;;9.60;3.60;;;;;;;5.13;87.39;99811.61;104647;1275;73925;-69
2022/04/20 03:06:52;;;;;;;11.10;3.80;;;;;;;5.13;87.67;99811.60;104767;1274;68023;-65
2022/04/20 03:10:03;;;;;;;8.60;3.00;;;;;;;5.14;87.53;99809.44;104753;1274;72165;-64
2022/04/20 03:12:57;;;;;;;9.60;3.40;;;;;;;5.16;87.35;99807.02;104960;1274;59272;-64
2022/04/20 03:15:46;;;;;;;10.10;3.40;;;;;;;5.18;87.39;99806.91;104841;1274;60521;-65
2022/04/20 03:18:35;;;;;;;10.60;3.10;;;;;;;5.18;87.52;99805.35;104799;1274;73143;-66
2022/04/20 03:21:30;;;;;;;10.40;3.30;;;;;;;5.19;87.24;99811.25;105059;1274;68936;-68
2022/04/20 03:24:22;;;;;;;9.40;3.20;;;;;;;5.18;87.62;99801.98;104714;1274;71585;-65
2022/04/20 03:27:23;;;;;;;11.80;3.80;;;;;;;5.17;87.42;99800.48;104989;1274;59475;-65
2022/04/20 03:30:16;;;;;;;12.20;3.50;;;;;;;5.17;87.70;99810.34;104998;1274;60800;-63
2022/04/20 03:33:06;;;;;;;10.80;3.20;;;;;;;5.19;87.64;99809.69;104726;1274;73081;-64
2022/04/20 03:35:53;;;;;;;8.20;3.10;;;;;;;5.20;87.71;99813.63;104806;1274;69558;-66
2022/04/20 03:38:42;;;;;;;9.60;3.40;;;;;;;5.21;87.62;99816.59;105007;1274;71824;-62
2022/04/20 03:41:30;;;;;;;9.10;3.10;;;;;;;5.23;87.65;99819.64;104481;1274;59383;-65
2022/04/20 03:44:18;;;;;;;8.20;2.80;;;;;;;5.28;87.66;99822.88;104806;1274;59459;-64
2022/04/20 03:47:08;;;;;;;8.30;3.30;;;;;;;5.30;87.61;99822.54;104744;1274;71602;-64
2022/04/20 03:49:56;;;;;;;8.30;3.20;;;;;;;5.32;87.51;99827.75;105088;1274;65660;-63
2022/04/20 03:52:44;;;;;;;14.70;3.30;;;;;;;5.33;87.24;99824.88;104758;1274;73607;-64
2022/04/20 03:55:32;;;;;;;8.80;3.10;;;;;;;5.34;87.30;99824.98;104730;1274;59317;-67
2022/04/20 03:58:21;;;;;;;9.30;3.10;;;;;;;5.34;87.18;99831.29;104645;1274;60132;-65
2022/04/20 04:01:08;;;;;;;9.10;3.20;;;;;;;5.35;87.19;99839.86;104819;1274;71855;-65
2022/04/20 04:03:57;;;;;;;12.30;3.70;;;;;;;5.37;87.23;99840.95;104691;1274;69416;-66
2022/04/20 04:06:46;;;;;;;9.30;3.00;;;;;;;5.41;87.20;99843.92;104567;1274;72773;-66
2022/04/20 04:09:36;;;;;;;10.80;3.20;;;;;;;5.44;87.01;99844.43;104859;1274;61076;-65
2022/04/20 04:12:24;;;;;;;8.00;2.80;;;;;;;5.47;86.97;99843.36;105010;1274;60848;-65
2022/04/20 04:15:16;;;;;;;10.10;2.90;;;;;;;5.51;86.72;99844.58;104682;1274;71943;-62
2022/04/20 04:18:05;;;;;;;9.70;2.90;;;;;;;5.53;86.64;99843.17;104705;1274;65755;-64
2022/04/20 04:20:58;;;;;;;9.80;2.80;;;;;;;5.57;86.17;99840.51;104725;1274;74154;-65
2022/04/20 04:23:46;;;;;;;7.60;2.40;;;;;;;5.59;86.28;99837.00;104852;1274;59495;-63
2022/04/20 04:26:50;;;;;;;9.80;3.40;;;;;;;5.60;85.99;99835.34;104867;1277;60641;-63
2022/04/20 04:29:42;;;;;;;8.00;2.50;;;;;;;5.61;85.88;99823.84;105036;1277;73569;-61
2022/04/20 04:32:31;;;;;;;9.00;2.60;;;;;;;5.62;85.65;99823.61;105814;1275;66832;-64
2022/04/20 04:35:21;;;;;;;9.90;3.10;;;;;;;5.65;85.56;99824.52;106167;1276;72068;-64
2022/04/20 04:38:10;;;;;;;8.40;3.10;;;;;;;5.70;85.45;99832.48;106393;1277;60565;-63
2022/04/20 04:40:59;;;;;;;10.00;2.80;;;;;;;5.75;85.35;99838.35;105972;1277;60231;-64
2022/04/20 04:43:56;;;;;;;8.00;2.50;;;;;;;5.80;84.94;99837.89;105604;1278;73943;-63
2022/04/20 04:50:05;;;;;;;9.20;2.90;;;;;;;5.96;84.69;99825.96;104591;1276;74397;-62
2022/04/20 04:52:54;;;;;;;7.80;2.70;;;;;;;6.03;84.31;99827.30;104542;1277;59298;-64
2022/04/20 04:55:41;;;;;;;9.00;2.90;;;;;;;6.08;83.96;99820.29;104669;1277;59517;-63
2022/04/20 04:58:29;;;;;;;7.30;2.80;;;;;;;6.14;83.67;99822.41;104906;1274;73123;-64
2022/04/20 05:01:19;;;;;;;9.40;3.00;;;;;;;6.19;83.45;99821.41;104774;1274;68658;-64
2022/04/20 05:04:07;;;;;;;12.20;2.70;;;;;;;6.26;83.39;99818.67;104953;1274;73820;-62
2022/04/20 05:06:57;;;;;;;8.20;2.70;;;;;;;6.34;83.12;99823.65;105009;1274;59626;-64
2022/04/20 05:10:03;;;;;;;11.50;3.50;;;;;;;6.44;82.18;99817.01;105085;1274;60458;-66
2022/04/20 05:12:52;;;;;;;8.90;2.60;;;;;;;6.50;81.43;99813.10;104684;1273;72223;-65
2022/04/20 05:15:40;;;;;;;8.70;2.70;;;;;;;6.52;80.83;99816.46;104906;1274;68419;-63
2022/04/20 05:18:28;;;;;;;8.80;2.80;;;;;;;6.57;80.86;99819.34;104787;1274;74395;-65
2022/04/20 05:21:17;;;;;;;9.30;2.90;;;;;;;6.62;80.87;99819.48;104611;1274;59296;-63
2022/04/20 05:24:06;;;;;;;9.50;2.80;;;;;;;6.71;80.80;99816.48;104827;1273;61107;-61
2022/04/20 05:26:55;;;;;;;10.50;2.80;;;;;;;6.79;80.16;99818.91;104751;1274;73054;-63
2022/04/20 05:29:44;;;;;;;9.40;3.10;;;;;;;6.86;79.20;99821.30;105223;1274;69174;-63
2022/04/20 05:32:33;;;;;;;10.40;3.10;;;;;;;7.02;79.10;99818.48;104812;1274;72530;-63
2022/04/20 05:35:23;;;;;;;10.90;3.00;;;;;;;7.29;78.15;99813.67;104780;1272;59826;-62
2022/04/20 05:44:28;;;;;;;10.30;3.50;;;;;;;7.89;75.30;99804.11;105445;1273;69336;-67
2022/04/20 05:47:16;;;;;;;8.90;3.00;;;;;;;7.96;74.97;99811.02;104966;1274;71853;-66
2022/04/20 05:50:05;;;;;;;10.10;3.40;;;;;;;7.99;74.30;99804.23;105289;1274;59312;-66
2022/04/20 05:52:54;;;;;;;8.80;3.10;;;;;;;7.98;74.38;99804.47;104778;1274;60544;-66
2022/04/20 05:55:42;;;;;;;10.20;3.30;;;;;;;7.97;73.94;99806.29;104908;1274;71952;-64
2022/04/20 05:58:30;;;;;;;9.90;3.60;;;;;;;7.97;73.99;99804.23;104704;1273;69665;-65
2022/04/20 06:01:22;;;;;;;9.10;3.40;;;;;;;7.99;73.28;99801.27;104851;1274;73300;-65
2022/04/20 06:04:18;;;;;;;10.40;2.70;;;;;;;7.97;73.12;99805.13;105158;1274;59647;-63
2022/04/20 06:07:29;;;;;;;7.90;2.80;;;;;;;7.96;73.01;99806.95;105032;1272;59272;-64
2022/04/20 06:10:57;;;;;;;8.50;2.70;;;;;;;8.02;73.04;99808.42;104884;1274;74337;-65
2022/04/20 06:13:45;;;;;;;9.10;3.40;;;;;;;8.13;72.31;99810.35;105003;1274;69129;-65
2022/04/20 06:16:47;;;;;;;10.20;3.20;;;;;;;8.20;72.14;99813.69;105102;1274;74522;-65
2022/04/20 06:19:43;;;;;;;9.80;3.00;;;;;;;8.23;71.38;99810.55;105222;1274;59326;-69
2022/04/20 06:22:52;;;;;;;7.90;2.70;;;;;;;8.20;71.00;99804.33;105198;1273;59298;-64
2022/04/20 06:26:03;;;;;;;7.70;2.70;;;;;;;8.18;70.54;99795.67;104952;1274;72210;-66
2022/04/20 06:28:51;;;;;;;8.70;3.00;;;;;;;8.16;70.41;99796.34;104838;1274;68376;-66
2022/04/20 06:31:57;;;;;;;9.50;2.60;;;;;;;8.17;69.97;99793.80;104797;1274;73191;-64
2022/04/20 06:34:51;;;;;;;9.90;2.60;;;;;;;8.15;69.42;99788.25;104668;1272;59170;-68
2022/04/20 06:37:57;;;;;;;9.80;2.50;;;;;;;8.22;69.44;99771.34;104820;1274;59365;-64
2022/04/20 06:41:12;;;;;;;9.10;2.60;;;;;;;8.35;68.74;99761.41;104871;1274;72400;-62
2022/04/20 06:44:14;;;;;;;9.20;3.10;;;;;;;8.51;68.90;99757.65;104965;1274;69197;-66
2022/04/20 06:47:11;;;;;;;7.90;2.80;;;;;;;8.62;68.14;99754.80;104760;1274;74367;-67
2022/04/20 06:50:19;;;;;;;8.40;2.80;;;;;;;8.70;67.35;99754.59;104923;1273;59259;-64
2022/04/20 06:59:50;;;;;;;7.40;2.60;;;;;;;9.29;64.98;99738.25;104852;1273;67887;-63
2022/04/20 07:02:59;;;;;;;8.60;2.50;;;;;;;9.72;62.66;99734.91;104836;1273;73289;-64
2022/04/20 07:06:10;;;;;;;11.90;2.90;;;;;;;10.50;61.61;99728.48;105049;1273;59226;-64
2022/04/20 07:09:15;;;;;;;8.90;3.10;;;;;;;10.77;59.25;99717.61;104919;1273;59632;-63
2022/04/20 07:12:23;;;;;;;7.50;2.40;;;;;;;10.88;58.86;99713.98;105403;1274;72481;-65
2022/04/20 07:15:16;;;;;;;8.50;2.70;;;;;;;11.58;56.52;99714.38;104730;1274;66526;-70
2022/04/20 07:18:05;;;;;;;7.80;2.40;;;;;;;12.51;53.88;99712.24;104911;1273;74625;-67
2022/04/20 07:21:12;;;;;;;7.20;2.30;;;;;;;13.59;51.08;99712.02;104978;1272;59294;-65
2022/04/20 07:24:34;;;;;;;9.10;2.60;;;;;;;14.88;47.88;99713.05;105120;1274;61621;-69
2022/04/20 07:27:22;;;;;;;9.20;2.50;;;;;;;15.94;44.54;99709.33;104693;1273;72910;-65
2022/04/20 07:30:35;;;;;;;7.90;2.70;;;;;;;17.11;41.66;99701.98;105161;1273;68117;-69
2022/04/20 07:33:44;;;;;;;8.70;2.10;;;;;;;17.92;38.42;99699.13;104928;1273;72027;-64
2022/04/20 07:36:42;;;;;;;7.70;2.20;;;;;;;18.51;36.95;99699.80;105028;1273;59668;-70
2022/04/20 07:39:44;;;;;;;7.60;2.00;;;;;;;19.02;35.53;99696.16;104734;1274;60375;-70
2022/04/20 07:42:44;;;;;;;8.00;2.20;;;;;;;19.45;34.28;99693.39;104935;1274;73496;-64
2022/04/20 07:45:32;;;;;;;7.10;2.10;;;;;;;19.60;33.70;99686.14;104902;1274;69599;-66
2022/04/20 07:48:42;;;;;;;8.60;2.30;;;;;;;19.78;33.24;99682.38;104969;1273;74501;-68
2022/04/20 07:51:49;;;;;;;7.80;2.40;;;;;;;19.98;32.60;99677.98;104982;1273;59758;-65
2022/04/20 07:55:13;;;;;;;7.70;2.30;;;;;;;20.03;32.06;99674.67;105007;1273;60218;-63
2022/04/20 07:58:14;;;;;;;8.50;2.20;;;;;;;20.20;31.59;99674.91;104542;1273;73904;-63
2022/04/20 08:01:21;;;;;;;7.40;2.60;;;;;;;20.35;30.90;99673.81;105255;1274;67002;-65
2022/04/20 08:04:16;;;;;;;7.10;1.90;;;;;;;20.29;30.54;99673.50;105051;1273;73267;-63
2022/04/20 08:07:09;;;;;;;7.20;1.90;;;;;;;20.48;30.19;99674.81;104544;1274;59310;-64
2022/04/20 08:09:57;;;;;;;8.30;2.20;;;;;;;20.66;30.36;99678.30;104675;1274;59295;-64
2022/04/20 08:12:45;;;;;;;6.90;1.70;;;;;;;20.93;30.16;99673.27;104745;1274;73887;-64
2022/04/20 08:15:37;;;;;;;8.10;2.20;;;;;;;20.92;29.37;99682.98;104538;1274;68600;-65
2022/04/20 08:18:27;;;;;;;6.60;2.10;;;;;;;20.73;29.58;99688.86;104636;1274;72087;-65
2022/04/20 08:21:53;;;;;;;8.50;2.10;;;;;;;20.89;29.32;99696.56;105014;1274;60052;-63
2022/04/20 08:24:45;;;;;;;6.90;2.20;;;;;;;21.14;29.48;99690.98;105451;1272;62048;-67
2022/04/20 08:27:33;;;;;;;7.50;1.80;;;;;;;21.38;28.83;99690.38;104946;1272;72122;-66
2022/04/20 08:30:21;;;;;;;8.40;1.90;;;;;;;20.90;28.99;99691.91;104818;1274;68660;-67
2022/04/20 08:33:09;;;;;;;7.40;2.30;;;;;;;20.64;29.52;99688.85;104752;1272;73582;-66
2022/04/20 08:35:57;;;;;;;8.30;2.10;;;;;;;20.21;29.74;99679.80;104828;1274;59412;-65
2022/04/20 08:38:45;;;;;;;9.30;2.10;;;;;;;20.00;30.47;99675.81;105006;1273;59393;-64
2022/04/20 08:41:34;;;;;;;6.80;1.70;;;;;;;20.10;30.45;99673.72;104865;1273;71486;-62
2022/04/20 08:44:28;;;;;;;6.90;1.70;;;;;;;20.07;30.38;99672.10;104983;1273;68604;-64
2022/04/20 08:47:28;;;;;;;8.30;1.90;;;;;;;20.20;30.37;99671.04;104878;1273;74257;-64
2022/04/20 08:50:17;;;;;;;7.30;2.30;;;;;;;20.15;29.85;99667.54;105039;1273;59654;-67
2022/04/20 08:53:05;;;;;;;6.30;1.70;;;;;;;19.97;30.13;99663.67;105193;1274;61535;-69
2022/04/20 08:57:15;;;;;;;7.80;1.80;;;;;;;19.87;30.26;99671.04;104868;1274;73055;-66
2022/04/20 08:59:03;;;;;;;7.30;2.00;;;;;;;19.99;30.34;99666.16;105075;1274;68708;-65
2022/04/20 09:01:51;;;;;;;7.10;2.10;;;;;;;20.13;30.37;99666.14;104956;1273;72679;-71
2022/04/20 09:04:39;;;;;;;7.50;1.90;;;;;;;20.20;30.14;99664.93;105525;1274;59257;-70
2022/04/20 09:07:27;;;;;;;7.20;2.10;;;;;;;20.48;30.02;99661.50;105043;1273;307700;-73
2022/04/20 09:10:19;;;;;;;6.00;1.80;;;;;;;20.95;29.40;99653.75;105111;1272;72678;-67
2022/04/20 09:13:11;;;;;;;10.40;1.90;;;;;;;21.28;29.00;99659.30;104784;1273;68147;-72
2022/04/20 09:16:09;;;;;;;7.60;1.60;;;;;;;21.59;28.46;99657.20;105107;1274;72645;-68
2022/04/20 09:18:57;;;;;;;7.60;1.90;;;;;;;21.44;28.16;99654.61;104994;1274;59218;-72
2022/04/20 09:21:45;;;;;;;7.70;1.80;;;;;;;21.08;28.63;99663.25;104743;1272;60599;-70
2022/04/20 09:24:32;;;;;;;8.30;1.90;;;;;;;21.03;28.62;99648.20;104882;1274;73363;-68
2022/04/20 09:27:20;;;;;;;8.00;2.10;;;;;;;21.45;28.61;99653.83;104841;1272;67724;-64
2022/04/20 09:30:13;;;;;;;6.50;1.90;;;;;;;21.68;28.32;99651.08;104793;1274;73448;-63
2022/04/20 09:33:06;;;;;;;7.50;1.80;;;;;;;21.56;27.98;99640.23;105031;1274;59426;-68
2022/04/20 09:35:55;;;;;;;5.90;1.60;;;;;;;22.00;27.75;99649.69;105081;1274;59687;-68
2022/04/20 09:39:04;;;;;;;7.40;2.10;;;;;;;22.34;27.35;99646.34;104945;1274;72992;-64
2022/04/20 09:42:02;;;;;;;7.30;2.10;;;;;;;22.56;26.52;99641.84;104707;1274;69435;-62
2022/04/20 09:45:02;;;;;;;7.90;1.80;;;;;;;22.46;26.27;99645.79;104659;1274;73271;-63
2022/04/20 09:51:13;;;;;;;8.20;2.10;;;;;;;22.50;26.43;99648.80;105026;1274;62051;-64
2022/04/20 09:54:01;;;;;;;7.20;1.90;;;;;;;22.83;26.06;99639.83;105376;1273;73079;-65
2022/04/20 09:57:10;;;;;;;7.80;1.80;;;;;;;23.09;25.99;99631.49;104860;1273;69627;-66
2022/04/20 10:00:05;;;;;;;8.90;2.10;;;;;;;23.09;25.29;99632.00;105112;1274;73022;-66
2022/04/20 10:03:09;;;;;;;6.70;1.80;;;;;;;23.08;25.07;99628.90;104782;1274;59432;-69
2022/04/20 10:05:58;;;;;;;9.60;1.90;;;;;;;23.36;25.15;99632.08;104865;1272;60365;-70
2022/04/20 10:08:45;;;;;;;7.50;1.80;;;;;;;23.22;24.95;99628.64;104835;1274;72290;-68
2022/04/20 10:11:37;;;;;;;8.20;1.80;;;;;;;23.23;24.61;99632.14;104861;1272;68364;-64
2022/04/20 10:17:46;;;;;;;8.70;1.80;;;;;;;23.24;24.75;99642.80;104966;1273;59307;-64
2022/04/20 10:20:34;;;;;;;7.00;1.90;;;;;;;23.04;24.34;99640.30;104743;1274;60803;-63
2022/04/20 10:23:23;;;;;;;6.90;2.00;;;;;;;23.09;24.82;99646.45;104935;1274;74647;-69
2022/04/20 10:26:12;;;;;;;7.10;2.00;;;;;;;23.45;24.68;99646.23;105366;1272;67067;-68
2022/04/20 10:29:30;;;;;;;7.00;2.00;;;;;;;23.46;24.11;99645.90;104923;1274;71809;-67
2022/04/20 10:32:25;;;;;;;10.10;2.30;;;;;;;23.26;24.30;99651.45;104925;1273;59737;-69
2022/04/20 10:35:26;;;;;;;9.80;2.30;;;;;;;23.51;24.49;99656.91;104761;1273;59502;-65
2022/04/20 10:38:20;;;;;;;7.80;1.90;;;;;;;23.56;24.14;99660.45;104896;1273;73916;-62
2022/04/20 10:41:28;;;;;;;6.40;1.90;;;;;;;24.02;23.51;99655.34;105475;1273;66130;-64
2022/04/20 10:44:21;;;;;;;7.10;2.20;;;;;;;24.08;22.71;99656.48;104804;1274;72947;-66
2022/04/20 10:47:19;;;;;;;6.90;1.80;;;;;;;24.01;22.85;99651.45;104907;1274;59430;-66
2022/04/20 10:50:28;;;;;;;9.10;2.10;;;;;;;23.51;23.17;99652.48;104834;1273;60717;-64
2022/04/20 10:53:22;;;;;;;7.60;2.10;;;;;;;23.31;23.25;99652.88;105149;1273;72722;-62
2022/04/20 10:56:10;;;;;;;7.70;1.90;;;;;;;23.62;23.45;99652.02;104801;1273;69396;-63
2022/04/20 10:59:04;;;;;;;9.50;2.30;;;;;;;23.57;22.83;99651.38;104833;1274;73603;-64
2022/04/20 11:02:02;;;;;;;6.20;1.90;;;;;;;22.59;23.99;99652.81;104835;1273;59340;-65
2022/04/20 11:04:50;;;;;;;7.60;2.00;;;;;;;22.38;24.72;99651.52;104826;1274;61062;-62
2022/04/20 11:08:11;;;;;;;9.20;2.10;;;;;;;22.81;24.04;99650.25;104757;1273;71425;-63
2022/04/20 11:21:04;;;;;;;7.40;1.90;;;;;;;22.63;23.52;99655.40;104760;1274;60236;-67
2022/04/20 11:23:58;;;;;;;6.70;2.00;;;;;;;22.32;24.06;99650.18;104835;1274;73502;-67
2022/04/20 11:26:54;;;;;;;6.60;1.60;;;;;;;21.90;24.09;99644.36;104965;1273;69664;-66
2022/04/20 11:29:43;;;;;;;9.50;1.80;;;;;;;21.71;24.68;99640.30;105234;1274;74480;-70
2022/04/20 11:32:35;;;;;;;9.20;2.30;;;;;;;21.24;24.78;99634.59;104789;1274;59284;-70
2022/04/20 11:35:30;;;;;;;8.50;1.70;;;;;;;21.17;25.35;99641.88;105000;1273;59966;-68
2022/04/20 11:38:18;;;;;;;6.60;1.90;;;;;;;21.25;25.24;99639.20;105095;1274;72730;-70
2022/04/20 11:41:06;;;;;;;7.10;1.80;;;;;;;21.29;25.19;99641.48;104586;1272;67434;-68
2022/04/20 11:43:58;;;;;;;7.20;1.80;;;;;;;20.91;25.48;99632.98;104779;1273;71756;-62
2022/04/20 11:46:46;;;;;;;7.70;2.10;;;;;;;20.48;26.40;99632.52;104886;1274;59464;-64
2022/04/20 11:49:42;;;;;;;7.60;1.70;;;;;;;19.88;27.13;99630.17;104753;1273;60389;-62
2022/04/20 11:52:30;;;;;;;8.60;2.60;;;;;;;19.39;27.72;99628.19;104954;1274;74009;-62
2022/04/20 11:55:47;;;;;;;7.40;1.80;;;;;;;19.09;27.85;99623.52;105123;1274;68905;-63
2022/04/20 11:58:39;;;;;;;10.20;2.30;;;;;;;19.00;28.55;99622.17;105116;1274;73385;-62
2022/04/20 12:01:33;;;;;;;7.40;1.90;;;;;;;18.62;29.19;99623.42;105047;1273;59365;-63
2022/04/20 12:04:28;;;;;;;8.20;2.10;;;;;;;18.14;29.97;99620.45;105044;1272;60219;-64
2022/04/20 12:07:17;;;;;;;6.70;1.90;;;;;;;17.76;31.05;99624.92;104667;1274;73488;-62
2022/04/20 12:10:06;;;;;;;8.50;1.90;;;;;;;17.61;31.48;99626.49;104690;1274;68376;-62
2022/04/20 12:12:54;;;;;;;6.70;2.20;;;;;;;17.33;31.60;99622.86;104770;1274;73365;-65
2022/04/20 12:15:42;;;;;;;7.30;1.90;;;;;;;17.11;31.79;99621.27;105022;1272;59433;-64
2022/04/20 12:18:36;;;;;;;8.70;2.00;;;;;;;16.88;32.56;99616.75;104989;1273;60335;-63
2022/04/20 12:21:45;;;;;;;8.40;2.30;;;;;;;16.67;32.92;99611.19;104639;1271;72689;-62
2022/04/20 12:24:34;;;;;;;8.00;2.10;;;;;;;16.46;33.39;99608.25;104660;1273;69061;-64
2022/04/20 12:27:24;;;;;;;10.20;2.10;;;;;;;16.09;33.68;99611.70;104992;1273;73448;-62
2022/04/20 12:30:14;;;;;;;8.20;2.10;;;;;;;15.75;34.60;99615.90;104871;1274;59348;-62
2022/04/20 12:33:05;;;;;;;9.80;2.10;;;;;;;15.35;34.92;99619.35;105823;1271;59311;-67
2022/04/20 12:36:11;;;;;;;8.10;2.20;;;;;;;15.00;35.60;99617.00;105089;1274;72801;-66
2022/04/20 12:39:02;;;;;;;6.80;2.20;;;;;;;14.73;36.27;99619.48;104940;1273;67457;-66
2022/04/20 12:42:02;;;;;;;11.40;2.20;;;;;;;14.53;36.98;99619.78;104898;1274;71999;-68
2022/04/20 12:45:02;;;;;;;8.40;1.90;;;;;;;14.15;36.70;99625.77;105056;1274;59384;-65
2022/04/20 12:48:03;;;;;;;9.90;2.20;;;;;;;13.93;37.34;99629.73;105217;1272;59503;-63
2022/04/20 12:50:55;;;;;;;5.30;1.60;;;;;;;13.64;37.91;99633.55;104752;1273;73363;-68
2022/04/20 12:53:43;;;;;;;8.50;2.00;;;;;;;13.46;38.35;99627.39;105267;1274;69080;-67
2022/04/20 13:03:07;;;;;;;10.20;2.20;;;;;;;13.14;39.86;99626.77;105153;1273;60578;-69
2022/04/20 13:05:55;;;;;;;11.10;2.30;;;;;;;13.09;40.25;99624.92;105224;1274;73178;-66
2022/04/20 13:08:46;;;;;;;8.30;2.30;;;;;;;13.14;40.63;99623.65;105073;1274;68403;-68
2022/04/20 13:11:39;;;;;;;8.40;2.00;;;;;;;13.13;40.41;99624.77;104645;1274;74460;-67
2022/04/20 13:14:28;;;;;;;9.50;2.10;;;;;;;13.21;40.82;99622.20;104990;1273;59457;-65
2022/04/20 13:17:16;;;;;;;6.80;1.90;;;;;;;13.29;40.48;99625.91;105024;1274;60545;-68
2022/04/20 13:20:04;;;;;;;9.30;2.10;;;;;;;13.34;40.39;99622.44;104834;1274;72520;-66
2022/04/20 13:22:52;;;;;;;8.90;2.20;;;;;;;13.38;39.90;99623.45;104858;1272;67820;-70
2022/04/20 13:28:49;;;;;;;9.20;2.20;;;;;;;13.35;40.56;99633.36;105098;1274;59740;-66
2022/04/20 13:31:37;;;;;;;9.20;2.00;;;;;;;13.25;40.44;99632.82;105137;1274;59275;-67
2022/04/20 13:34:26;;;;;;;9.10;1.90;;;;;;;13.14;41.07;99629.70;104569;1274;72789;-67
2022/04/20 13:37:14;;;;;;;8.80;2.10;;;;;;;13.00;41.35;99634.40;105104;1274;67399;-66
2022/04/20 13:40:06;;;;;;;11.20;2.60;;;;;;;12.76;41.65;99634.50;105766;1274;73302;-62
2022/04/20 13:42:54;;;;;;;10.10;2.40;;;;;;;12.65;41.63;99636.54;105854;1274;59287;-65
2022/04/20 13:45:43;;;;;;;9.20;2.50;;;;;;;12.65;41.82;99639.95;105006;1274;60370;-68
2022/04/20 13:48:32;;;;;;;10.20;2.30;;;;;;;12.76;42.31;99642.25;104908;1274;73779;-64
2022/04/20 13:51:19;;;;;;;8.60;2.20;;;;;;;12.87;41.90;99634.46;105021;1274;66549;-67
2022/04/20 13:54:08;;;;;;;8.50;2.30;;;;;;;12.99;41.86;99632.43;105087;1274;73414;-67
2022/04/20 13:56:56;;;;;;;12.30;2.70;;;;;;;13.10;41.23;99638.39;104835;1274;59403;-66
2022/04/20 13:59:44;;;;;;;8.20;2.20;;;;;;;13.06;40.92;99629.66;104850;1273;61818;-68
2022/04/20 14:02:33;;;;;;;6.90;2.30;;;;;;;13.09;41.08;99630.29;104888;1274;71506;-65
2022/04/20 14:05:21;;;;;;;6.20;1.80;;;;;;;13.23;40.43;99629.48;104821;1272;69383;-66
2022/04/20 14:08:09;;;;;;;6.20;1.80;;;;;;;13.38;39.78;99629.55;104987;1274;73564;-69
2022/04/20 14:10:57;;;;;;;8.60;2.30;;;;;;;13.61;39.51;99627.73;104898;1274;59288;-68
2022/04/20 14:13:48;;;;;;;6.40;1.80;;;;;;;13.84;38.57;99631.09;104892;1274;60292;-65
2022/04/20 14:16:41;;;;;;;9.60;2.80;;;;;;;13.84;38.31;99629.59;104854;1273;72907;-70